sensor_id;sensor_type;location;lat;lon;timestamp;P1;durP1;ratioP1;P2;durP2;ratioP2
20721;SDS011;10522;52.198;9.890;2024-02-26T00:01:41;6.40;;;3.20;;
20721;SDS011;10522;52.198;9.890;2024-02-26T00:04:08;6.27;;;2.93;;
20721;SDS011;10522;52.198;9.890;2024-02-26T00:06:34;4.50;;;3.53;;
20721;SDS011;10522;52.198;9.890;2024-02-26T00:09:00;6.83;;;3.70;;
20721;SDS011;10522;52.198;9.890;2024-02-26T00:11:27;5.63;;;3.57;;
20721;SDS011;10522;52.198;9.890;2024-02-26T00:13:53;5.53;;;3.40;;
20721;SDS011;10522;52.198;9.890;2024-02-26T00:16:18;5.33;;;3.37;;
20721;SDS011;10522;52.198;9.890;2024-02-26T00:18:44;5.40;;;3.57;;
20721;SDS011;10522;52.198;9.890;2024-02-26T00:21:09;4.50;;;3.37;;
20721;SDS011;10522;52.198;9.890;2024-02-26T00:23:35;4.20;;;3.03;;
20721;SDS011;10522;52.198;9.890;2024-02-26T00:26:00;4.07;;;2.73;;
20721;SDS011;10522;52.198;9.890;2024-02-26T00:28:26;7.07;;;2.97;;
20721;SDS011;10522;52.198;9.890;2024-02-26T00:30:54;4.77;;;3.10;;
20721;SDS011;10522;52.198;9.890;2024-02-26T00:33:21;3.60;;;2.70;;
20721;SDS011;10522;52.198;9.890;2024-02-26T00:35:47;4.83;;;3.10;;
20721;SDS011;10522;52.198;9.890;2024-02-26T00:38:13;11.53;;;3.63;;
20721;SDS011;10522;52.198;9.890;2024-02-26T00:40:38;4.97;;;3.37;;
20721;SDS011;10522;52.198;9.890;2024-02-26T00:43:05;5.07;;;2.93;;
20721;SDS011;10522;52.198;9.890;2024-02-26T00:45:31;5.50;;;3.13;;
20721;SDS011;10522;52.198;9.890;2024-02-26T00:47:57;3.57;;;3.00;;
20721;SDS011;10522;52.198;9.890;2024-02-26T00:50:23;5.73;;;3.20;;
20721;SDS011;10522;52.198;9.890;2024-02-26T00:52:48;5.90;;;3.30;;
20721;SDS011;10522;52.198;9.890;2024-02-26T00:55:14;6.23;;;3.33;;
20721;SDS011;10522;52.198;9.890;2024-02-26T00:57:40;5.47;;;3.13;;
20721;SDS011;10522;52.198;9.890;2024-02-26T01:00:06;5.57;;;3.23;;
20721;SDS011;10522;52.198;9.890;2024-02-26T01:02:34;5.03;;;3.00;;
20721;SDS011;10522;52.198;9.890;2024-02-26T01:04:59;3.00;;;2.70;;
20721;SDS011;10522;52.198;9.890;2024-02-26T01:07:25;6.90;;;3.30;;
20721;SDS011;10522;52.198;9.890;2024-02-26T01:09:50;6.77;;;3.13;;
20721;SDS011;10522;52.198;9.890;2024-02-26T01:12:16;4.33;;;3.00;;
20721;SDS011;10522;52.198;9.890;2024-02-26T01:14:41;4.00;;;2.90;;
20721;SDS011;10522;52.198;9.890;2024-02-26T01:17:07;5.80;;;3.20;;
20721;SDS011;10522;52.198;9.890;2024-02-26T01:19:33;8.60;;;4.03;;
20721;SDS011;10522;52.198;9.890;2024-02-26T01:21:58;5.83;;;3.10;;
20721;SDS011;10522;52.198;9.890;2024-02-26T01:24:24;5.17;;;3.73;;
20721;SDS011;10522;52.198;9.890;2024-02-26T01:26:49;5.53;;;3.43;;
20721;SDS011;10522;52.198;9.890;2024-02-26T01:29:15;6.97;;;3.83;;
20721;SDS011;10522;52.198;9.890;2024-02-26T01:31:40;4.77;;;3.47;;
20721;SDS011;10522;52.198;9.890;2024-02-26T01:34:06;5.77;;;4.00;;
20721;SDS011;10522;52.198;9.890;2024-02-26T01:36:31;5.27;;;3.43;;
20721;SDS011;10522;52.198;9.890;2024-02-26T01:38:57;5.00;;;3.03;;
20721;SDS011;10522;52.198;9.890;2024-02-26T01:41:23;5.70;;;3.50;;
20721;SDS011;10522;52.198;9.890;2024-02-26T01:43:48;5.27;;;3.23;;
20721;SDS011;10522;52.198;9.890;2024-02-26T01:46:14;5.83;;;3.70;;
20721;SDS011;10522;52.198;9.890;2024-02-26T01:48:41;5.80;;;3.33;;
20721;SDS011;10522;52.198;9.890;2024-02-26T01:51:07;7.43;;;4.00;;
20721;SDS011;10522;52.198;9.890;2024-02-26T01:53:33;5.70;;;3.50;;
20721;SDS011;10522;52.198;9.890;2024-02-26T01:55:59;6.67;;;4.07;;
20721;SDS011;10522;52.198;9.890;2024-02-26T01:58:25;5.10;;;3.57;;
20721;SDS011;10522;52.198;9.890;2024-02-26T02:00:51;9.87;;;4.03;;
20721;SDS011;10522;52.198;9.890;2024-02-26T02:03:17;6.33;;;3.60;;
20721;SDS011;10522;52.198;9.890;2024-02-26T02:05:42;5.77;;;3.73;;
20721;SDS011;10522;52.198;9.890;2024-02-26T02:08:10;8.30;;;4.00;;
20721;SDS011;10522;52.198;9.890;2024-02-26T02:10:37;4.27;;;3.53;;
20721;SDS011;10522;52.198;9.890;2024-02-26T02:13:03;4.37;;;3.13;;
20721;SDS011;10522;52.198;9.890;2024-02-26T02:15:29;6.17;;;3.13;;
20721;SDS011;10522;52.198;9.890;2024-02-26T02:17:55;7.37;;;2.97;;
20721;SDS011;10522;52.198;9.890;2024-02-26T02:20:33;4.60;;;3.50;;
20721;SDS011;10522;52.198;9.890;2024-02-26T02:22:59;5.97;;;3.37;;
20721;SDS011;10522;52.198;9.890;2024-02-26T02:25:25;5.97;;;4.10;;
20721;SDS011;10522;52.198;9.890;2024-02-26T02:27:51;4.87;;;3.47;;
20721;SDS011;10522;52.198;9.890;2024-02-26T02:30:19;7.77;;;3.43;;
20721;SDS011;10522;52.198;9.890;2024-02-26T02:32:46;4.07;;;3.20;;
20721;SDS011;10522;52.198;9.890;2024-02-26T02:35:12;6.90;;;2.90;;
20721;SDS011;10522;52.198;9.890;2024-02-26T02:37:37;4.50;;;3.37;;
20721;SDS011;10522;52.198;9.890;2024-02-26T02:40:03;5.10;;;3.57;;
20721;SDS011;10522;52.198;9.890;2024-02-26T02:42:30;4.63;;;3.17;;
20721;SDS011;10522;52.198;9.890;2024-02-26T02:44:55;7.40;;;4.33;;
20721;SDS011;10522;52.198;9.890;2024-02-26T02:47:21;5.80;;;3.30;;
20721;SDS011;10522;52.198;9.890;2024-02-26T02:49:46;5.17;;;3.77;;
20721;SDS011;10522;52.198;9.890;2024-02-26T02:52:12;5.87;;;3.10;;
20721;SDS011;10522;52.198;9.890;2024-02-26T02:54:38;6.43;;;3.40;;
20721;SDS011;10522;52.198;9.890;2024-02-26T02:57:06;5.10;;;3.67;;
20721;SDS011;10522;52.198;9.890;2024-02-26T02:59:32;5.50;;;4.00;;
20721;SDS011;10522;52.198;9.890;2024-02-26T03:01:57;6.27;;;3.60;;
20721;SDS011;10522;52.198;9.890;2024-02-26T03:04:23;3.63;;;3.33;;
20721;SDS011;10522;52.198;9.890;2024-02-26T03:06:49;6.10;;;3.90;;
20721;SDS011;10522;52.198;9.890;2024-02-26T03:09:14;5.77;;;3.90;;
20721;SDS011;10522;52.198;9.890;2024-02-26T03:11:40;5.27;;;3.13;;
20721;SDS011;10522;52.198;9.890;2024-02-26T03:14:05;4.37;;;3.40;;
20721;SDS011;10522;52.198;9.890;2024-02-26T03:16:31;5.77;;;3.93;;
20721;SDS011;10522;52.198;9.890;2024-02-26T03:18:57;5.57;;;3.80;;
20721;SDS011;10522;52.198;9.890;2024-02-26T03:21:23;11.27;;;4.57;;
20721;SDS011;10522;52.198;9.890;2024-02-26T03:23:50;5.90;;;3.47;;
20721;SDS011;10522;52.198;9.890;2024-02-26T03:26:15;6.60;;;3.67;;
20721;SDS011;10522;52.198;9.890;2024-02-26T03:28:41;4.60;;;3.37;;
20721;SDS011;10522;52.198;9.890;2024-02-26T03:31:06;8.23;;;3.77;;
20721;SDS011;10522;52.198;9.890;2024-02-26T03:33:32;7.00;;;3.43;;
20721;SDS011;10522;52.198;9.890;2024-02-26T03:35:58;6.37;;;3.87;;
20721;SDS011;10522;52.198;9.890;2024-02-26T03:38:23;4.80;;;3.43;;
20721;SDS011;10522;52.198;9.890;2024-02-26T03:40:49;5.33;;;3.77;;
20721;SDS011;10522;52.198;9.890;2024-02-26T03:43:14;7.40;;;3.80;;
20721;SDS011;10522;52.198;9.890;2024-02-26T03:45:40;4.90;;;3.53;;
20721;SDS011;10522;52.198;9.890;2024-02-26T03:48:05;6.33;;;3.90;;
20721;SDS011;10522;52.198;9.890;2024-02-26T03:50:31;6.30;;;3.83;;
20721;SDS011;10522;52.198;9.890;2024-02-26T03:52:57;6.17;;;4.37;;
20721;SDS011;10522;52.198;9.890;2024-02-26T03:55:23;7.37;;;3.87;;
20721;SDS011;10522;52.198;9.890;2024-02-26T03:57:53;4.97;;;3.50;;
20721;SDS011;10522;52.198;9.890;2024-02-26T04:00:19;8.87;;;3.80;;
20721;SDS011;10522;52.198;9.890;2024-02-26T04:02:46;5.03;;;4.00;;
20721;SDS011;10522;52.198;9.890;2024-02-26T04:05:12;6.10;;;3.87;;
20721;SDS011;10522;52.198;9.890;2024-02-26T04:07:38;5.17;;;3.50;;
20721;SDS011;10522;52.198;9.890;2024-02-26T04:10:08;7.93;;;3.70;;
20721;SDS011;10522;52.198;9.890;2024-02-26T04:12:34;5.17;;;3.73;;
20721;SDS011;10522;52.198;9.890;2024-02-26T04:15:00;8.77;;;3.63;;
20721;SDS011;10522;52.198;9.890;2024-02-26T04:17:26;8.63;;;4.00;;
20721;SDS011;10522;52.198;9.890;2024-02-26T04:19:51;9.43;;;3.77;;
20721;SDS011;10522;52.198;9.890;2024-02-26T04:22:17;9.37;;;4.17;;
20721;SDS011;10522;52.198;9.890;2024-02-26T04:24:42;12.00;;;3.90;;
20721;SDS011;10522;52.198;9.890;2024-02-26T04:27:08;9.50;;;3.83;;
20721;SDS011;10522;52.198;9.890;2024-02-26T04:29:33;7.27;;;3.50;;
20721;SDS011;10522;52.198;9.890;2024-02-26T04:31:59;6.43;;;3.80;;
20721;SDS011;10522;52.198;9.890;2024-02-26T04:34:24;4.80;;;3.60;;
20721;SDS011;10522;52.198;9.890;2024-02-26T04:36:50;5.17;;;3.30;;
20721;SDS011;10522;52.198;9.890;2024-02-26T04:39:16;5.60;;;3.60;;
20721;SDS011;10522;52.198;9.890;2024-02-26T04:41:41;5.47;;;4.00;;
20721;SDS011;10522;52.198;9.890;2024-02-26T04:44:07;4.73;;;3.07;;
20721;SDS011;10522;52.198;9.890;2024-02-26T04:46:32;5.20;;;3.50;;
20721;SDS011;10522;52.198;9.890;2024-02-26T04:48:58;5.50;;;3.40;;
20721;SDS011;10522;52.198;9.890;2024-02-26T04:51:23;4.73;;;3.00;;
20721;SDS011;10522;52.198;9.890;2024-02-26T04:53:49;4.47;;;3.10;;
20721;SDS011;10522;52.198;9.890;2024-02-26T04:56:15;4.80;;;2.93;;
20721;SDS011;10522;52.198;9.890;2024-02-26T04:58:40;5.23;;;3.17;;
20721;SDS011;10522;52.198;9.890;2024-02-26T05:01:06;6.77;;;3.53;;
20721;SDS011;10522;52.198;9.890;2024-02-26T05:03:31;5.87;;;2.87;;
20721;SDS011;10522;52.198;9.890;2024-02-26T05:05:57;4.17;;;3.73;;
20721;SDS011;10522;52.198;9.890;2024-02-26T05:08:23;5.10;;;3.10;;
20721;SDS011;10522;52.198;9.890;2024-02-26T05:10:49;3.83;;;2.90;;
20721;SDS011;10522;52.198;9.890;2024-02-26T05:13:14;6.07;;;3.17;;
20721;SDS011;10522;52.198;9.890;2024-02-26T05:15:42;5.40;;;3.40;;
20721;SDS011;10522;52.198;9.890;2024-02-26T05:18:08;4.43;;;3.07;;
20721;SDS011;10522;52.198;9.890;2024-02-26T05:20:34;4.60;;;3.40;;
20721;SDS011;10522;52.198;9.890;2024-02-26T05:23:01;5.53;;;3.77;;
20721;SDS011;10522;52.198;9.890;2024-02-26T05:25:26;5.50;;;3.30;;
20721;SDS011;10522;52.198;9.890;2024-02-26T05:27:52;4.13;;;3.40;;
20721;SDS011;10522;52.198;9.890;2024-02-26T05:30:18;7.07;;;4.17;;
20721;SDS011;10522;52.198;9.890;2024-02-26T05:32:43;8.07;;;4.10;;
20721;SDS011;10522;52.198;9.890;2024-02-26T05:35:09;6.97;;;4.23;;
20721;SDS011;10522;52.198;9.890;2024-02-26T05:37:34;5.10;;;3.57;;
20721;SDS011;10522;52.198;9.890;2024-02-26T05:40:00;5.77;;;3.47;;
20721;SDS011;10522;52.198;9.890;2024-02-26T05:42:26;6.40;;;3.70;;
20721;SDS011;10522;52.198;9.890;2024-02-26T05:44:51;3.63;;;2.97;;
20721;SDS011;10522;52.198;9.890;2024-02-26T05:47:17;5.63;;;3.30;;
20721;SDS011;10522;52.198;9.890;2024-02-26T05:49:43;4.70;;;3.27;;
20721;SDS011;10522;52.198;9.890;2024-02-26T05:52:08;4.93;;;3.50;;
20721;SDS011;10522;52.198;9.890;2024-02-26T05:54:34;4.83;;;3.50;;
20721;SDS011;10522;52.198;9.890;2024-02-26T05:57:00;6.30;;;3.77;;
20721;SDS011;10522;52.198;9.890;2024-02-26T05:59:26;6.60;;;4.37;;
20721;SDS011;10522;52.198;9.890;2024-02-26T06:01:51;6.73;;;3.80;;
20721;SDS011;10522;52.198;9.890;2024-02-26T06:04:17;4.57;;;3.60;;
20721;SDS011;10522;52.198;9.890;2024-02-26T06:06:43;5.30;;;3.70;;
20721;SDS011;10522;52.198;9.890;2024-02-26T06:09:10;6.57;;;3.60;;
20721;SDS011;10522;52.198;9.890;2024-02-26T06:11:36;4.70;;;3.60;;
20721;SDS011;10522;52.198;9.890;2024-02-26T06:14:02;10.90;;;4.50;;
20721;SDS011;10522;52.198;9.890;2024-02-26T06:16:28;4.70;;;4.17;;
20721;SDS011;10522;52.198;9.890;2024-02-26T06:18:53;5.57;;;4.17;;
20721;SDS011;10522;52.198;9.890;2024-02-26T06:21:19;7.13;;;4.50;;
20721;SDS011;10522;52.198;9.890;2024-02-26T06:23:45;7.87;;;4.87;;
20721;SDS011;10522;52.198;9.890;2024-02-26T06:26:10;8.47;;;4.50;;
20721;SDS011;10522;52.198;9.890;2024-02-26T06:28:36;6.73;;;4.60;;
20721;SDS011;10522;52.198;9.890;2024-02-26T06:31:05;6.70;;;4.50;;
20721;SDS011;10522;52.198;9.890;2024-02-26T06:33:30;5.93;;;4.47;;
20721;SDS011;10522;52.198;9.890;2024-02-26T06:35:56;5.07;;;4.00;;
20721;SDS011;10522;52.198;9.890;2024-02-26T06:38:22;6.40;;;5.20;;
20721;SDS011;10522;52.198;9.890;2024-02-26T06:40:47;6.67;;;4.80;;
20721;SDS011;10522;52.198;9.890;2024-02-26T06:43:13;6.87;;;4.50;;
20721;SDS011;10522;52.198;9.890;2024-02-26T06:45:38;7.83;;;4.50;;
20721;SDS011;10522;52.198;9.890;2024-02-26T06:48:04;9.47;;;4.63;;
20721;SDS011;10522;52.198;9.890;2024-02-26T06:50:30;6.90;;;4.27;;
20721;SDS011;10522;52.198;9.890;2024-02-26T06:52:55;6.47;;;4.57;;
20721;SDS011;10522;52.198;9.890;2024-02-26T06:55:21;6.23;;;4.47;;
20721;SDS011;10522;52.198;9.890;2024-02-26T06:57:47;7.43;;;4.63;;
20721;SDS011;10522;52.198;9.890;2024-02-26T07:00:12;8.87;;;4.50;;
20721;SDS011;10522;52.198;9.890;2024-02-26T07:02:41;7.33;;;5.10;;
20721;SDS011;10522;52.198;9.890;2024-02-26T07:05:07;7.40;;;5.13;;
20721;SDS011;10522;52.198;9.890;2024-02-26T07:07:33;6.50;;;4.60;;
20721;SDS011;10522;52.198;9.890;2024-02-26T07:09:59;7.20;;;5.20;;
20721;SDS011;10522;52.198;9.890;2024-02-26T07:12:25;7.63;;;5.23;;
20721;SDS011;10522;52.198;9.890;2024-02-26T07:14:51;7.93;;;5.53;;
20721;SDS011;10522;52.198;9.890;2024-02-26T07:17:17;9.20;;;4.77;;
20721;SDS011;10522;52.198;9.890;2024-02-26T07:19:42;8.80;;;5.43;;
20721;SDS011;10522;52.198;9.890;2024-02-26T07:22:08;10.50;;;5.53;;
20721;SDS011;10522;52.198;9.890;2024-02-26T07:24:34;8.73;;;5.87;;
20721;SDS011;10522;52.198;9.890;2024-02-26T07:26:59;7.87;;;5.57;;
20721;SDS011;10522;52.198;9.890;2024-02-26T07:29:25;7.73;;;5.97;;
20721;SDS011;10522;52.198;9.890;2024-02-26T07:31:51;9.47;;;6.77;;
20721;SDS011;10522;52.198;9.890;2024-02-26T07:34:16;9.50;;;6.77;;
20721;SDS011;10522;52.198;9.890;2024-02-26T07:36:42;12.67;;;7.47;;
20721;SDS011;10522;52.198;9.890;2024-02-26T07:39:07;12.07;;;7.03;;
20721;SDS011;10522;52.198;9.890;2024-02-26T07:41:33;11.90;;;6.40;;
20721;SDS011;10522;52.198;9.890;2024-02-26T07:43:59;8.20;;;5.87;;
20721;SDS011;10522;52.198;9.890;2024-02-26T07:46:24;9.93;;;6.77;;
20721;SDS011;10522;52.198;9.890;2024-02-26T07:48:50;9.20;;;5.50;;
20721;SDS011;10522;52.198;9.890;2024-02-26T07:51:16;10.23;;;6.03;;
20721;SDS011;10522;52.198;9.890;2024-02-26T07:53:42;7.23;;;5.10;;
20721;SDS011;10522;52.198;9.890;2024-02-26T07:56:08;9.63;;;5.53;;
20721;SDS011;10522;52.198;9.890;2024-02-26T07:58:34;8.70;;;5.50;;
20721;SDS011;10522;52.198;9.890;2024-02-26T08:01:00;11.30;;;5.83;;
20721;SDS011;10522;52.198;9.890;2024-02-26T08:03:26;9.87;;;5.60;;
20721;SDS011;10522;52.198;9.890;2024-02-26T08:05:51;10.07;;;6.13;;
20721;SDS011;10522;52.198;9.890;2024-02-26T08:08:17;8.30;;;5.37;;
20721;SDS011;10522;52.198;9.890;2024-02-26T08:10:42;12.37;;;4.80;;
20721;SDS011;10522;52.198;9.890;2024-02-26T08:13:08;8.27;;;5.40;;
20721;SDS011;10522;52.198;9.890;2024-02-26T08:15:35;12.10;;;5.23;;
20721;SDS011;10522;52.198;9.890;2024-02-26T08:18:02;7.43;;;4.80;;
20721;SDS011;10522;52.198;9.890;2024-02-26T08:20:28;8.60;;;5.23;;
20721;SDS011;10522;52.198;9.890;2024-02-26T08:22:54;6.93;;;3.93;;
20721;SDS011;10522;52.198;9.890;2024-02-26T08:25:20;6.80;;;4.43;;
20721;SDS011;10522;52.198;9.890;2024-02-26T08:27:46;7.60;;;4.50;;
20721;SDS011;10522;52.198;9.890;2024-02-26T08:30:12;7.00;;;4.27;;
20721;SDS011;10522;52.198;9.890;2024-02-26T08:32:45;6.33;;;4.17;;
20721;SDS011;10522;52.198;9.890;2024-02-26T08:35:12;6.00;;;4.70;;
20721;SDS011;10522;52.198;9.890;2024-02-26T08:37:38;6.33;;;4.63;;
20721;SDS011;10522;52.198;9.890;2024-02-26T08:40:04;5.50;;;4.13;;
20721;SDS011;10522;52.198;9.890;2024-02-26T08:42:30;7.30;;;4.97;;
20721;SDS011;10522;52.198;9.890;2024-02-26T08:44:56;7.27;;;4.80;;
20721;SDS011;10522;52.198;9.890;2024-02-26T08:47:25;7.23;;;4.53;;
20721;SDS011;10522;52.198;9.890;2024-02-26T08:49:50;11.00;;;4.60;;
20721;SDS011;10522;52.198;9.890;2024-02-26T08:52:16;6.27;;;4.60;;
20721;SDS011;10522;52.198;9.890;2024-02-26T08:54:41;6.77;;;4.60;;
20721;SDS011;10522;52.198;9.890;2024-02-26T08:57:07;7.20;;;4.67;;
20721;SDS011;10522;52.198;9.890;2024-02-26T08:59:33;5.13;;;4.37;;
20721;SDS011;10522;52.198;9.890;2024-02-26T09:01:58;6.33;;;4.43;;
20721;SDS011;10522;52.198;9.890;2024-02-26T09:04:24;5.57;;;3.60;;
20721;SDS011;10522;52.198;9.890;2024-02-26T09:06:50;8.83;;;4.63;;
20721;SDS011;10522;52.198;9.890;2024-02-26T09:09:16;5.53;;;3.70;;
20721;SDS011;10522;52.198;9.890;2024-02-26T09:11:41;9.67;;;4.67;;
20721;SDS011;10522;52.198;9.890;2024-02-26T09:14:07;5.90;;;4.13;;
20721;SDS011;10522;52.198;9.890;2024-02-26T09:16:32;5.63;;;4.10;;
20721;SDS011;10522;52.198;9.890;2024-02-26T09:18:58;5.93;;;3.90;;
20721;SDS011;10522;52.198;9.890;2024-02-26T09:21:23;5.80;;;3.87;;
20721;SDS011;10522;52.198;9.890;2024-02-26T09:23:50;5.37;;;3.87;;
20721;SDS011;10522;52.198;9.890;2024-02-26T09:26:16;5.07;;;3.87;;
20721;SDS011;10522;52.198;9.890;2024-02-26T09:28:42;5.07;;;3.97;;
20721;SDS011;10522;52.198;9.890;2024-02-26T09:31:07;4.50;;;3.67;;
20721;SDS011;10522;52.198;9.890;2024-02-26T09:33:33;6.33;;;3.70;;
20721;SDS011;10522;52.198;9.890;2024-02-26T09:35:59;6.57;;;3.73;;
20721;SDS011;10522;52.198;9.890;2024-02-26T09:38:27;4.43;;;3.63;;
20721;SDS011;10522;52.198;9.890;2024-02-26T09:40:54;4.40;;;3.60;;
20721;SDS011;10522;52.198;9.890;2024-02-26T09:43:22;4.93;;;3.40;;
20721;SDS011;10522;52.198;9.890;2024-02-26T09:45:52;6.63;;;4.27;;
20721;SDS011;10522;52.198;9.890;2024-02-26T09:48:19;10.20;;;4.50;;
20721;SDS011;10522;52.198;9.890;2024-02-26T09:50:45;5.30;;;3.63;;
20721;SDS011;10522;52.198;9.890;2024-02-26T09:53:12;6.00;;;3.47;;
20721;SDS011;10522;52.198;9.890;2024-02-26T09:55:39;6.27;;;3.50;;
20721;SDS011;10522;52.198;9.890;2024-02-26T09:58:05;4.53;;;3.20;;
20721;SDS011;10522;52.198;9.890;2024-02-26T10:00:32;5.27;;;3.67;;
20721;SDS011;10522;52.198;9.890;2024-02-26T10:03:04;5.70;;;3.23;;
20721;SDS011;10522;52.198;9.890;2024-02-26T10:05:31;6.03;;;3.40;;
20721;SDS011;10522;52.198;9.890;2024-02-26T10:07:58;4.03;;;3.33;;
20721;SDS011;10522;52.198;9.890;2024-02-26T10:10:26;5.13;;;3.43;;
20721;SDS011;10522;52.198;9.890;2024-02-26T10:12:54;5.13;;;3.43;;
20721;SDS011;10522;52.198;9.890;2024-02-26T10:15:19;4.50;;;3.37;;
20721;SDS011;10522;52.198;9.890;2024-02-26T10:17:45;6.23;;;3.37;;
20721;SDS011;10522;52.198;9.890;2024-02-26T10:20:17;4.37;;;3.40;;
20721;SDS011;10522;52.198;9.890;2024-02-26T10:22:44;3.60;;;3.13;;
20721;SDS011;10522;52.198;9.890;2024-02-26T10:25:10;5.73;;;3.60;;
20721;SDS011;10522;52.198;9.890;2024-02-26T10:27:35;11.67;;;3.93;;
20721;SDS011;10522;52.198;9.890;2024-02-26T10:30:06;8.73;;;3.60;;
20721;SDS011;10522;52.198;9.890;2024-02-26T10:32:43;5.50;;;3.17;;
20721;SDS011;10522;52.198;9.890;2024-02-26T10:35:09;5.00;;;3.73;;
20721;SDS011;10522;52.198;9.890;2024-02-26T10:37:35;6.20;;;3.77;;
20721;SDS011;10522;52.198;9.890;2024-02-26T10:40:01;5.97;;;3.17;;
20721;SDS011;10522;52.198;9.890;2024-02-26T10:42:28;3.63;;;3.00;;
20721;SDS011;10522;52.198;9.890;2024-02-26T10:44:53;4.27;;;3.50;;
20721;SDS011;10522;52.198;9.890;2024-02-26T10:47:19;6.90;;;3.37;;
20721;SDS011;10522;52.198;9.890;2024-02-26T10:49:48;4.77;;;3.13;;
20721;SDS011;10522;52.198;9.890;2024-02-26T10:52:15;5.73;;;3.23;;
20721;SDS011;10522;52.198;9.890;2024-02-26T10:54:43;4.37;;;3.17;;
20721;SDS011;10522;52.198;9.890;2024-02-26T10:57:13;5.53;;;3.20;;
20721;SDS011;10522;52.198;9.890;2024-02-26T10:59:41;5.10;;;3.13;;
20721;SDS011;10522;52.198;9.890;2024-02-26T11:02:09;4.13;;;3.17;;
20721;SDS011;10522;52.198;9.890;2024-02-26T11:04:35;5.23;;;3.37;;
20721;SDS011;10522;52.198;9.890;2024-02-26T11:07:03;4.67;;;3.27;;
20721;SDS011;10522;52.198;9.890;2024-02-26T11:09:29;4.30;;;2.70;;
20721;SDS011;10522;52.198;9.890;2024-02-26T11:11:56;5.03;;;3.10;;
20721;SDS011;10522;52.198;9.890;2024-02-26T11:14:22;4.40;;;3.13;;
20721;SDS011;10522;52.198;9.890;2024-02-26T11:16:50;4.30;;;3.17;;
20721;SDS011;10522;52.198;9.890;2024-02-26T11:19:16;3.40;;;2.40;;
20721;SDS011;10522;52.198;9.890;2024-02-26T11:21:43;7.03;;;2.93;;
20721;SDS011;10522;52.198;9.890;2024-02-26T11:24:11;4.27;;;2.87;;
20721;SDS011;10522;52.198;9.890;2024-02-26T11:29:38;3.50;;;2.83;;
20721;SDS011;10522;52.198;9.890;2024-02-26T11:32:08;4.73;;;2.43;;
20721;SDS011;10522;52.198;9.890;2024-02-26T11:34:35;2.63;;;2.40;;
20721;SDS011;10522;52.198;9.890;2024-02-26T11:39:36;3.73;;;2.27;;
20721;SDS011;10522;52.198;9.890;2024-02-26T11:42:07;4.97;;;3.07;;
20721;SDS011;10522;52.198;9.890;2024-02-26T11:44:34;4.57;;;2.83;;
20721;SDS011;10522;52.198;9.890;2024-02-26T11:47:09;3.57;;;2.90;;
20721;SDS011;10522;52.198;9.890;2024-02-26T11:49:35;5.33;;;3.23;;
20721;SDS011;10522;52.198;9.890;2024-02-26T11:52:02;6.77;;;3.47;;
20721;SDS011;10522;52.198;9.890;2024-02-26T11:57:24;5.27;;;3.53;;
20721;SDS011;10522;52.198;9.890;2024-02-26T12:02:51;5.87;;;3.43;;
20721;SDS011;10522;52.198;9.890;2024-02-26T12:05:26;4.87;;;3.20;;
20721;SDS011;10522;52.198;9.890;2024-02-26T12:07:59;4.20;;;3.03;;
20721;SDS011;10522;52.198;9.890;2024-02-26T12:18:07;5.40;;;3.87;;
20721;SDS011;10522;52.198;9.890;2024-02-26T12:20:37;7.93;;;3.93;;
20721;SDS011;10522;52.198;9.890;2024-02-26T12:23:03;6.03;;;3.93;;
20721;SDS011;10522;52.198;9.890;2024-02-26T12:25:29;5.20;;;3.90;;
20721;SDS011;10522;52.198;9.890;2024-02-26T12:27:56;8.47;;;4.47;;
20721;SDS011;10522;52.198;9.890;2024-02-26T12:30:22;7.50;;;3.90;;
20721;SDS011;10522;52.198;9.890;2024-02-26T12:32:49;8.53;;;4.20;;
20721;SDS011;10522;52.198;9.890;2024-02-26T12:35:16;9.40;;;4.23;;
20721;SDS011;10522;52.198;9.890;2024-02-26T12:37:42;6.40;;;4.13;;
20721;SDS011;10522;52.198;9.890;2024-02-26T12:40:09;10.57;;;4.50;;
20721;SDS011;10522;52.198;9.890;2024-02-26T12:42:35;6.40;;;4.10;;
20721;SDS011;10522;52.198;9.890;2024-02-26T12:45:07;5.60;;;4.00;;
20721;SDS011;10522;52.198;9.890;2024-02-26T12:47:35;11.77;;;5.30;;
20721;SDS011;10522;52.198;9.890;2024-02-26T12:50:04;8.53;;;4.87;;
20721;SDS011;10522;52.198;9.890;2024-02-26T12:52:34;7.87;;;4.70;;
20721;SDS011;10522;52.198;9.890;2024-02-26T12:55:01;10.10;;;5.03;;
20721;SDS011;10522;52.198;9.890;2024-02-26T12:57:29;8.93;;;5.30;;
20721;SDS011;10522;52.198;9.890;2024-02-26T12:59:58;8.40;;;5.23;;
20721;SDS011;10522;52.198;9.890;2024-02-26T13:02:25;8.93;;;5.37;;
20721;SDS011;10522;52.198;9.890;2024-02-26T13:04:51;8.37;;;4.73;;
20721;SDS011;10522;52.198;9.890;2024-02-26T13:07:18;7.97;;;5.20;;
20721;SDS011;10522;52.198;9.890;2024-02-26T13:09:44;7.27;;;5.17;;
20721;SDS011;10522;52.198;9.890;2024-02-26T13:12:10;8.47;;;5.47;;
20721;SDS011;10522;52.198;9.890;2024-02-26T13:14:37;10.33;;;5.07;;
20721;SDS011;10522;52.198;9.890;2024-02-26T13:17:03;8.50;;;5.23;;
20721;SDS011;10522;52.198;9.890;2024-02-26T13:19:29;9.73;;;5.67;;
20721;SDS011;10522;52.198;9.890;2024-02-26T13:21:55;10.93;;;5.57;;
20721;SDS011;10522;52.198;9.890;2024-02-26T13:24:21;8.13;;;5.40;;
20721;SDS011;10522;52.198;9.890;2024-02-26T13:26:53;10.87;;;6.00;;
20721;SDS011;10522;52.198;9.890;2024-02-26T13:29:19;8.43;;;5.37;;
20721;SDS011;10522;52.198;9.890;2024-02-26T13:31:45;7.50;;;4.87;;
20721;SDS011;10522;52.198;9.890;2024-02-26T13:34:27;14.97;;;5.90;;
20721;SDS011;10522;52.198;9.890;2024-02-26T13:36:55;9.80;;;5.17;;
20721;SDS011;10522;52.198;9.890;2024-02-26T13:39:25;8.93;;;5.90;;
20721;SDS011;10522;52.198;9.890;2024-02-26T13:41:51;10.20;;;5.33;;
20721;SDS011;10522;52.198;9.890;2024-02-26T13:44:18;10.40;;;6.10;;
20721;SDS011;10522;52.198;9.890;2024-02-26T13:46:45;9.43;;;5.93;;
20721;SDS011;10522;52.198;9.890;2024-02-26T13:49:10;9.17;;;5.63;;
20721;SDS011;10522;52.198;9.890;2024-02-26T13:51:36;9.10;;;5.50;;
20721;SDS011;10522;52.198;9.890;2024-02-26T13:54:03;7.73;;;5.80;;
20721;SDS011;10522;52.198;9.890;2024-02-26T13:56:29;10.53;;;6.17;;
20721;SDS011;10522;52.198;9.890;2024-02-26T13:58:55;10.90;;;6.30;;
20721;SDS011;10522;52.198;9.890;2024-02-26T14:01:20;8.20;;;5.63;;
20721;SDS011;10522;52.198;9.890;2024-02-26T14:03:46;10.30;;;6.37;;
20721;SDS011;10522;52.198;9.890;2024-02-26T14:06:11;9.30;;;6.33;;
20721;SDS011;10522;52.198;9.890;2024-02-26T14:08:37;12.17;;;6.30;;
20721;SDS011;10522;52.198;9.890;2024-02-26T14:11:03;9.87;;;5.83;;
20721;SDS011;10522;52.198;9.890;2024-02-26T14:13:28;8.77;;;6.27;;
20721;SDS011;10522;52.198;9.890;2024-02-26T14:15:54;11.40;;;7.37;;
20721;SDS011;10522;52.198;9.890;2024-02-26T14:18:20;9.60;;;6.30;;
20721;SDS011;10522;52.198;9.890;2024-02-26T14:20:45;11.53;;;6.57;;
20721;SDS011;10522;52.198;9.890;2024-02-26T14:23:11;11.63;;;5.97;;
20721;SDS011;10522;52.198;9.890;2024-02-26T14:25:36;9.27;;;5.87;;
20721;SDS011;10522;52.198;9.890;2024-02-26T14:28:02;9.87;;;6.23;;
20721;SDS011;10522;52.198;9.890;2024-02-26T14:30:28;10.73;;;6.70;;
20721;SDS011;10522;52.198;9.890;2024-02-26T14:32:54;8.67;;;6.10;;
20721;SDS011;10522;52.198;9.890;2024-02-26T14:35:20;10.47;;;6.70;;
20721;SDS011;10522;52.198;9.890;2024-02-26T14:37:45;12.53;;;6.80;;
20721;SDS011;10522;52.198;9.890;2024-02-26T14:40:12;9.17;;;6.10;;
20721;SDS011;10522;52.198;9.890;2024-02-26T14:42:38;12.90;;;6.97;;
20721;SDS011;10522;52.198;9.890;2024-02-26T14:45:04;8.23;;;5.70;;
20721;SDS011;10522;52.198;9.890;2024-02-26T14:47:32;10.97;;;6.50;;
20721;SDS011;10522;52.198;9.890;2024-02-26T14:49:57;14.90;;;6.60;;
20721;SDS011;10522;52.198;9.890;2024-02-26T14:52:23;10.67;;;6.97;;
20721;SDS011;10522;52.198;9.890;2024-02-26T14:54:48;14.47;;;6.67;;
20721;SDS011;10522;52.198;9.890;2024-02-26T14:57:16;9.43;;;6.57;;
20721;SDS011;10522;52.198;9.890;2024-02-26T14:59:42;10.53;;;6.87;;